Flight Track Log - Related Links

Times and Time Zones

All times are in EDT time to prevent confusion due to time zone crossing. See the AMF1026 flight status page for this flight to view local times or setup timezone preferences in your user account.

Time Position Orientation Groundspeed Altitude Reporting Facility
EDT Latitude Longitude Course Direction KTS MPH feet Rate Location/Type
Thu 08:15:50 PM 42.7694 -73.8089 324° Northwest 153 176 1,000  Level Boston Center
Thu 08:16:41 PM 42.7983 -73.8378 324° Northwest 181 208 2,300 1,607 Climbing Boston Center
Thu 08:17:42 PM 42.7744 -73.8967 241° Southwest 180 207 4,000 1,642 Climbing Boston Center
Thu 08:18:27 PM 42.7553 -73.9389 238° Southwest 181 208 5,200 1,600 Climbing Boston Center
Thu 08:19:27 PM 42.7397 -74.0061 253° West 196 226 6,800 1,438 Climbing Boston Center
Thu 08:20:28 PM 42.7386 -74.0825 269° West 196 226 8,100 1,190 Climbing Boston Center
Thu 08:21:28 PM 42.7397 -74.1503 271° West 196 226 9,200 1,091 Climbing Boston Center
Thu 08:22:29 PM 42.7386 -74.2294 269° West 196 226 10,300 992 Climbing Boston Center
Thu 08:23:29 PM 42.7333 -74.3028 264° West 196 226 11,200 950 Climbing Boston Center
Thu 08:24:29 PM 42.7069 -74.3811 245° Southwest 208 239 12,200 915 Climbing Boston Center
Thu 08:25:27 PM 42.6869 -74.4456 247° West 208 239 13,000 857 Climbing Boston Center
Thu 08:26:28 PM 42.6667 -74.5267 251° West 213 245 13,900 744 Climbing Boston Center
Thu 08:27:28 PM 42.6489 -74.5939 250° West 213 245 14,500 645 Climbing Boston Center
Thu 08:28:29 PM 42.6264 -74.6778 250° West 207 238 15,200 645 Climbing Boston Center
Thu 08:29:29 PM 42.6083 -74.7450 250° West 207 238 15,800 397 Climbing Boston Center
Thu 08:30:30 PM 42.5878 -74.8344 253° West 212 244 16,000 102 Climbing Boston Center
Thu 08:31:27 PM 42.5653 -74.9153 249° West 223 257 16,000  Level Boston Center
Thu 08:32:27 PM 42.5467 -74.9961 253° West 223 257 16,000  Level Boston Center
Thu 08:33:28 PM 42.5261 -75.0744 250° West 223 257 16,000  Level Boston Center
Thu 08:35:07 PM 42.4822 -75.1875 242° Southwest 225 259 16,000  Level New York Center
Thu 08:36:06 PM 42.4525 -75.2614 241° Southwest 225 259 16,000  Level New York Center
Thu 08:37:07 PM 42.4228 -75.3322 240° Southwest 225 259 16,000  Level New York Center
Thu 08:38:07 PM 42.3950 -75.4061 243° Southwest 225 259 16,000  Level New York Center
Thu 08:39:08 PM 42.3650 -75.4797 241° Southwest 225 259 16,000  Level New York Center
Thu 08:40:06 PM 42.3369 -75.5536 243° Southwest 225 259 16,000  Level New York Center
Thu 08:41:07 PM 42.3111 -75.6272 245° Southwest 220 253 16,000  Level New York Center
Thu 08:42:06 PM 42.2872 -75.7042 247° West 220 253 16,000  Level New York Center
Thu 08:43:06 PM 42.2672 -75.7839 251° West 220 253 16,000  Level New York Center
Thu 08:44:07 PM 42.2514 -75.8611 255° West 220 253 16,000  Level New York Center
Thu 08:45:08 PM 42.2294 -75.9378 249° West 220 253 16,000  Level New York Center
Thu 08:46:08 PM 42.2011 -76.0139 243° Southwest 225 259 16,000  Level New York Center
Thu 08:47:06 PM 42.1689 -76.0842 238° Southwest 230 265 16,000  Level New York Center
Thu 08:48:06 PM 42.1406 -76.1572 242° Southwest 235 270 16,000  Level New York Center
Thu 08:49:06 PM 42.1122 -76.2333 243° Southwest 235 270 16,000  Level New York Center
Thu 08:50:07 PM 42.0858 -76.3094 245° Southwest 235 270 16,000  Level New York Center
Thu 08:51:08 PM 42.0656 -76.3858 250° West 229 264 16,000  Level New York Center
Thu 08:52:06 PM 42.0389 -76.4644 245° Southwest 229 264 16,000  Level New York Center
Thu 08:53:06 PM 42.0164 -76.5408 248° West 229 264 16,000  Level New York Center
Thu 08:54:07 PM 41.9939 -76.6197 249° West 229 264 16,000  Level New York Center
Thu 08:55:07 PM 41.9733 -76.6989 251° West 229 264 16,000  Level New York Center
Thu 08:56:08 PM 41.9506 -76.7750 248° West 229 264 16,000  Level New York Center
Thu 08:57:31 PM 41.9175 -76.8967 250° West 228 262 16,000  Level Cleveland Center
Thu 08:58:31 PM 41.8950 -76.9761 249° West 228 262 16,000  Level Cleveland Center
Thu 08:59:31 PM 41.8703 -77.0528 247° West 233 268 16,000  Level Cleveland Center
Thu 09:00:31 PM 41.8456 -77.1322 247° West 233 268 16,000  Level Cleveland Center
Thu 09:01:31 PM 41.8208 -77.2086 247° West 233 268 16,000  Level Cleveland Center
Thu 09:02:31 PM 41.7939 -77.2881 246° West 238 274 16,000  Level Cleveland Center
Thu 09:03:31 PM 41.7669 -77.3619 244° Southwest 238 274 16,000  Level Cleveland Center
Thu 09:04:31 PM 41.7292 -77.4333 235° Southwest 238 274 16,000  Level Cleveland Center
Thu 09:05:31 PM 41.6914 -77.5019 234° Southwest 238 274 16,000  Level Cleveland Center
Thu 09:06:31 PM 41.6536 -77.5706 234° Southwest 238 274 16,000  Level Cleveland Center
Thu 09:07:31 PM 41.6158 -77.6417 235° Southwest 238 274 16,000  Level Cleveland Center
Thu 09:08:31 PM 41.5842 -77.7125 239° Southwest 233 268 16,000  Level Cleveland Center
Thu 09:09:31 PM 41.5569 -77.7886 244° Southwest 233 268 16,000  Level Cleveland Center
Thu 09:10:31 PM 41.5297 -77.8647 244° Southwest 233 268 16,000  Level Cleveland Center
Thu 09:11:31 PM 41.5086 -77.9433 250° West 228 262 16,000  Level Cleveland Center
Thu 09:12:31 PM 41.4875 -78.0217 250° West 228 262 16,000  Level Cleveland Center
Thu 09:13:31 PM 41.4642 -78.1031 249° West 233 268 16,000  Level Cleveland Center
Thu 09:14:31 PM 41.4408 -78.1789 248° West 233 268 16,000  Level Cleveland Center
Thu 09:15:31 PM 41.4131 -78.2544 244° Southwest 233 268 16,000  Level Cleveland Center
Thu 09:16:31 PM 41.3875 -78.3331 247° West 233 268 16,000  Level Cleveland Center
Thu 09:17:31 PM 41.3681 -78.4028 250° West 233 268 16,000  Level Cleveland Center
Thu 09:18:31 PM 41.3425 -78.4783 246° West 233 268 16,000  Level Cleveland Center
Thu 09:19:31 PM 41.3167 -78.5567 246° West 233 268 16,000  Level Cleveland Center
Thu 09:20:31 PM 41.2908 -78.6292 245° Southwest 233 268 16,000  Level Cleveland Center
Thu 09:21:31 PM 41.2672 -78.7075 248° West 238 274 16,000  Level Cleveland Center
Thu 09:22:31 PM 41.2414 -78.7853 246° West 233 268 16,000  Level Cleveland Center
Thu 09:23:31 PM 41.2194 -78.8606 249° West 233 268 16,000  Level Cleveland Center
Thu 09:24:31 PM 41.1917 -78.9497 248° West 239 275 16,000  Level Cleveland Center
Thu 09:25:31 PM 41.1739 -79.0164 251° West 233 268 16,000  Level Cleveland Center
Thu 09:26:31 PM 41.1519 -79.0942 249° West 233 268 16,000  Level Cleveland Center
Thu 09:27:31 PM 41.1319 -79.1717 251° West 233 268 16,000  Level Cleveland Center
Thu 09:28:31 PM 41.1122 -79.2547 253° West 233 268 16,000  Level Cleveland Center
Thu 09:29:31 PM 41.0922 -79.3350 252° West 233 268 16,000  Level Cleveland Center
Thu 09:30:31 PM 41.0700 -79.4097 248° West 233 268 16,000  Level Cleveland Center
Thu 09:31:31 PM 41.0500 -79.4872 251° West 233 268 16,000  Level Cleveland Center
Thu 09:32:31 PM 41.0278 -79.5647 249° West 233 268 16,000  Level Cleveland Center
Thu 09:33:31 PM 41.0033 -79.6422 247° West 233 268 16,000  Level Cleveland Center
Thu 09:34:31 PM 40.9811 -79.7167 248° West 233 268 16,000  Level Cleveland Center
Thu 09:35:31 PM 40.9567 -79.7942 247° West 233 268 16,000  Level Cleveland Center
Thu 09:36:31 PM 40.9342 -79.8686 248° West 233 268 16,000  Level Cleveland Center
Thu 09:37:31 PM 40.9117 -79.9456 249° West 233 268 16,000  Level Cleveland Center
Thu 09:38:31 PM 40.8892 -80.0200 248° West 233 268 16,000  Level Cleveland Center
Thu 09:39:31 PM 40.8625 -80.1028 247° West 233 268 16,000  Level Cleveland Center
Thu 09:40:31 PM 40.8336 -80.1769 243° Southwest 233 268 16,000  Level Cleveland Center
Thu 09:41:31 PM 40.8067 -80.2511 244° Southwest 233 268 16,000  Level Cleveland Center
Thu 09:42:31 PM 40.7714 -80.3228 237° Southwest 233 268 16,000  Level Cleveland Center
Thu 09:43:31 PM 40.7361 -80.3831 232° Southwest 238 274 16,000  Level Cleveland Center
Thu 09:44:31 PM 40.6944 -80.4489 230° Southwest 238 274 16,000  Level Cleveland Center
Thu 09:45:31 PM 40.6550 -80.5175 233° Southwest 238 274 16,000  Level Cleveland Center
Thu 09:46:31 PM 40.6111 -80.5914 232° Southwest 238 274 16,000  Level Cleveland Center
Thu 09:47:31 PM 40.5778 -80.6542 235° Southwest 233 268 16,000  Level Cleveland Center
Thu 09:48:31 PM 40.5425 -80.7225 236° Southwest 228 262 16,000  Level Cleveland Center
Thu 09:49:31 PM 40.5069 -80.7906 236° Southwest 228 262 16,000  Level Cleveland Center
Thu 09:50:31 PM 40.4711 -80.8586 235° Southwest 233 268 16,000  Level Cleveland Center
Thu 09:51:31 PM 40.4356 -80.9267 236° Southwest 233 268 16,000  Level Cleveland Center
Thu 09:52:31 PM 40.4000 -80.9947 236° Southwest 233 268 16,000  Level Cleveland Center
Thu 09:53:31 PM 40.3642 -81.0653 236° Southwest 238 274 16,000  Level Cleveland Center
Thu 09:54:31 PM 40.3264 -81.1306 233° Southwest 238 274 16,000  Level Cleveland Center
Thu 09:55:31 PM 40.2886 -81.1956 233° Southwest 238 274 16,000  Level Cleveland Center
Thu 09:56:41 PM 40.2467 -81.2725 234° Southwest 229 264 16,000  Level Indianapolis Center
Thu 09:57:43 PM 40.2092 -81.3403 234° Southwest 229 264 16,000  Level Indianapolis Center
Thu 09:58:44 PM 40.1719 -81.4100 235° Southwest 230 265 16,000  Level Indianapolis Center
Thu 09:59:45 PM 40.1358 -81.4803 236° Southwest 231 266 16,000  Level Indianapolis Center
Thu 10:00:46 PM 40.1022 -81.5514 238° Southwest 229 264 16,000  Level Indianapolis Center
Thu 10:01:48 PM 40.0742 -81.6414 248° West 228 262 16,000  Level Indianapolis Center
Thu 10:02:49 PM 40.0514 -81.7197 249° West 228 262 16,000  Level Indianapolis Center
Thu 10:03:50 PM 40.0300 -81.7881 248° West 230 265 16,000  Level Indianapolis Center
Thu 10:04:51 PM 40.0058 -81.8658 248° West 230 265 16,000  Level Indianapolis Center
Thu 10:05:52 PM 39.9792 -81.9575 249° West 230 265 16,000  Level Indianapolis Center
Thu 10:06:54 PM 39.9561 -82.0358 249° West 230 265 16,000  Level Indianapolis Center
Thu 10:07:55 PM 39.9333 -82.1153 250° West 232 267 16,000  Level Indianapolis Center
Thu 10:08:56 PM 39.9119 -82.1942 251° West 230 265 16,000  Level Indianapolis Center
Thu 10:09:57 PM 39.8892 -82.2719 249° West 231 266 16,000  Level Indianapolis Center
Thu 10:10:58 PM 39.8672 -82.3525 250° West 234 269 16,000  Level Indianapolis Center
Thu 10:12:00 PM 39.8450 -82.4300 250° West 227 261 16,000  Level Indianapolis Center
Thu 10:13:01 PM 39.8228 -82.5108 250° West 234 269 16,000  Level Indianapolis Center
Thu 10:14:02 PM 39.7983 -82.5908 248° West 235 270 16,000  Level Indianapolis Center
Thu 10:15:03 PM 39.7742 -82.6703 248° West 235 270 16,000  Level Indianapolis Center
Thu 10:16:04 PM 39.7472 -82.7478 246° West 233 268 16,000  Level Indianapolis Center
Thu 10:17:05 PM 39.7194 -82.8258 245° Southwest 235 270 16,000  Level Indianapolis Center
Thu 10:18:07 PM 39.6917 -82.9017 245° Southwest 233 268 16,000  Level Indianapolis Center
Thu 10:19:08 PM 39.6617 -82.9764 242° Southwest 232 267 16,000  Level Indianapolis Center
Thu 10:20:09 PM 39.6306 -83.0497 241° Southwest 230 265 16,000  Level Indianapolis Center
Thu 10:21:10 PM 39.5992 -83.1231 241° Southwest 230 265 16,000 -98 Level Indianapolis Center
Thu 10:22:11 PM 39.5678 -83.1964 241° Southwest 230 265 15,800 -908 Descending Indianapolis Center
Thu 10:23:09 PM 39.5308 -83.2856 242° Southwest 257 296 14,200 -2,852 Descending Indianapolis Center
Thu 10:24:13 PM 39.4964 -83.3703 242° Southwest 250 288 10,000 -672 Descending Indianapolis Center
Thu 10:25:14 PM 39.4661 -83.4494 244° Southwest 244 281 12,800 559 Climbing Indianapolis Center
Thu 10:26:11 PM 39.4381 -83.5225 244° Southwest 246 283 11,100 -1,017 Descending Indianapolis Center
Thu 10:27:12 PM 39.4064 -83.6067 244° Southwest 248 285 10,800 -639 Descending Indianapolis Center
Thu 10:28:13 PM 39.3725 -83.6903 242° Southwest 265 305 9,800 -803 Descending Indianapolis Center
Thu 10:29:19 PM 39.3392 -83.7783 244° Southwest 258 297 9,100 -472 Descending Indianapolis Center
Thu 10:30:20 PM 39.3075 -83.8633 244° Southwest 259 298 8,800 -639 Descending Indianapolis Center
Thu 10:31:21 PM 39.2756 -83.9486 244° Southwest 261 300 7,800 -984 Descending Indianapolis Center
Thu 10:32:22 PM 39.2278 -84.0219 230° Southwest 266 306 6,800 -984 Descending Indianapolis Center
Thu 10:33:23 PM 39.1833 -84.0981 233° Southwest 263 303 5,800 -984 Descending Indianapolis Center
Thu 10:34:24 PM 39.1394 -84.1736 233° Southwest 264 304 4,800 -829 Descending Indianapolis Center
Thu 10:35:26 PM 39.0956 -84.2531 235° Southwest 267 307 4,100 -390 Descending Indianapolis Center
Thu 10:36:27 PM 39.0558 -84.3283 236° Southwest 260 299 4,000 -49 Descending Indianapolis Center
Thu 10:37:28 PM 39.0194 -84.3944 235° Southwest 237 273 4,000  Level Indianapolis Center
Thu 10:38:29 PM 38.9803 -84.4631 234° Southwest 235 270 4,000 -77 Level Indianapolis Center
Thu 10:40:04 PM 38.9500 -84.5833 252° West 203 234 3,800 -596 Descending Cincinnati TRACON
Thu 10:41:10 PM 38.9500 -84.6667 270° West 167 192 2,400 -1,000 Descending Cincinnati TRACON
Thu 10:42:04 PM 38.9833 -84.6667 360° North 123 142 1,800 -667 Descending Cincinnati TRACON
Thu 10:44:00 PM 39.0483 -84.6678 359° North  Level Estimated

Login

Don't have an account? Register now (free) for customized features, flight alerts, and more!